Time;durP1;ratioP1;P1;durP2;ratioP2;P2;SDS_P1;SDS_P2;PMS_P1;PMS_P2;Temp;Humidity;BMP_temperature;BMP_pressure;BME280_temperature;BME280_humidity;BME280_pressure;Samples;Min_cycle;Max_cycle;Signal;HPM_P1;HPM_P2
2022/05/09 00:00:18;;;;;;;;;2.00;2.00;;;;;11.56;57.26;102837.94;4990373;28;9979;-64
2022/05/09 00:02:48;;;;;;;;;2.25;2.00;;;;;11.55;57.13;102836.25;4985693;28;10159;-66
2022/05/09 00:05:17;;;;;;;;;4.50;1.75;;;;;11.51;57.01;102833.00;4993951;28;10100;-67
2022/05/09 00:07:45;;;;;;;;;5.00;1.25;;;;;11.51;57.68;102837.53;4986155;28;10172;-67
2022/05/09 00:10:15;;;;;;;;;2.00;1.25;;;;;11.54;56.90;102832.66;4993834;28;10250;-66
2022/05/09 00:12:41;;;;;;;;;1.50;1.50;;;;;11.55;57.62;102838.94;4991827;28;10127;-66
2022/05/09 00:15:09;;;;;;;;;2.00;1.75;;;;;11.55;57.75;102830.84;4993858;28;10181;-66
2022/05/09 00:17:36;;;;;;;;;1.00;1.00;;;;;11.58;57.76;102830.53;4992617;28;10164;-66
2022/05/09 00:20:03;;;;;;;;;3.75;3.00;;;;;11.56;56.86;102830.69;4993850;28;9985;-64
2022/05/09 00:22:31;;;;;;;;;2.75;2.75;;;;;11.46;57.46;102832.56;4992546;28;10177;-65
2022/05/09 00:25:00;;;;;;;;;4.00;2.00;;;;;11.35;58.05;102833.66;4992172;28;11011;-65
2022/05/09 00:27:27;;;;;;;;;1.00;1.00;;;;;11.37;57.88;102833.50;4993316;28;10090;-65
2022/05/09 00:29:54;;;;;;;;;1.00;1.00;;;;;11.42;57.89;102825.78;4991939;28;9911;-62
2022/05/09 00:32:21;;;;;;;;;1.00;1.00;;;;;11.38;57.65;102824.41;4993332;28;10053;-67
2022/05/09 00:34:47;;;;;;;;;1.00;1.00;;;;;11.41;57.25;102821.41;4993650;28;9919;-64
2022/05/09 00:37:14;;;;;;;;;2.00;1.00;;;;;11.39;57.82;102810.78;4993073;28;10237;-64
2022/05/09 00:39:40;;;;;;;;;1.25;1.25;;;;;11.33;57.24;102814.06;4992699;28;10093;-64
2022/05/09 00:42:12;;;;;;;;;3.50;3.25;;;;;11.21;58.09;102811.72;4989472;28;10122;-66
2022/05/09 00:44:40;;;;;;;;;2.25;1.25;;;;;11.19;58.53;102817.28;4988834;28;10448;-67
2022/05/09 00:47:06;;;;;;;;;6.75;2.25;;;;;11.20;58.53;102810.88;4989545;28;10142;-66
2022/05/09 00:49:40;;;;;;;;;0.00;0.00;;;;;11.23;57.60;102807.06;4991429;28;10185;-66
2022/05/09 00:52:26;;;;;;;;;2.00;0.75;;;;;11.17;58.43;102811.19;4991043;28;10820;-66
2022/05/09 00:55:01;;;;;;;;;1.50;1.50;;;;;11.21;58.05;102819.81;4990993;28;10199;-66
2022/05/09 00:57:37;;;;;;;;;0.50;0.50;;;;;11.16;58.56;102816.72;4992455;28;10128;-65
2022/05/09 01:00:16;;;;;;;;;3.50;2.50;;;;;11.12;58.71;102816.19;4976094;28;10190;-64
2022/05/09 01:02:48;;;;;;;;;2.00;1.00;;;;;11.20;58.74;102810.88;4988100;28;10237;-62
2022/05/09 01:05:16;;;;;;;;;4.00;2.00;;;;;11.25;58.14;102803.19;4991650;28;10149;-66
2022/05/09 01:07:43;;;;;;;;;2.00;1.25;;;;;11.29;58.72;102809.13;4985719;28;10313;-65
2022/05/09 01:10:14;;;;;;;;;0.75;0.00;;;;;11.26;58.50;102804.03;4991088;28;10167;-65
2022/05/09 01:12:44;;;;;;;;;2.25;1.00;;;;;11.23;58.10;102805.19;5000993;28;10103;-66
2022/05/09 01:15:15;;;;;;;;;2.00;1.00;;;;;11.07;58.38;102797.75;4992843;28;10082;-66
2022/05/09 01:17:46;;;;;;;;;2.00;2.00;;;;;11.04;59.07;102795.38;4991789;28;10034;-63
2022/05/09 01:20:12;;;;;;;;;2.75;2.00;;;;;11.05;58.80;102799.75;4986146;28;10260;-64
2022/05/09 01:22:41;;;;;;;;;1.50;1.00;;;;;11.12;58.90;102795.47;4991234;28;10168;-65
2022/05/09 01:25:11;;;;;;;;;2.00;2.00;;;;;11.20;58.52;102794.72;4990830;28;10099;-65
2022/05/09 01:27:42;;;;;;;;;1.00;1.00;;;;;11.27;58.85;102785.03;4989556;28;10095;-65
2022/05/09 01:30:16;;;;;;;;;1.00;1.00;;;;;11.31;58.41;102786.44;4992157;28;10218;-65
2022/05/09 01:32:56;;;;;;;;;2.00;2.00;;;;;11.34;58.60;102791.53;4979576;28;10959;-64
2022/05/09 01:35:34;;;;;;;;;1.00;1.00;;;;;11.34;58.54;102779.88;4991590;28;10086;-64
2022/05/09 01:38:16;;;;;;;;;3.00;2.00;;;;;11.33;58.70;102772.78;4989582;28;10159;-64
2022/05/09 01:40:43;;;;;;;;;3.25;1.50;;;;;11.30;58.12;102767.69;4974001;28;10129;-65
2022/05/09 01:43:10;;;;;;;;;2.00;2.00;;;;;11.24;58.21;102771.00;4989034;28;10014;-65
2022/05/09 01:45:36;;;;;;;;;3.50;3.50;;;;;11.22;58.73;102776.56;4984979;28;10116;-66
2022/05/09 01:50:48;;;;;;;;;2.75;2.75;;;;;11.25;58.94;102773.53;4975116;28;10180;-65
2022/05/09 01:53:15;;;;;;;;;1.75;1.75;;;;;11.31;58.52;102770.25;4990617;28;10200;-66
2022/05/09 01:55:41;;;;;;;;;3.50;2.75;;;;;11.33;58.59;102770.09;4983164;28;10910;-63
2022/05/09 01:58:08;;;;;;;;;4.00;2.75;;;;;11.25;58.35;102765.44;4985982;28;10156;-64
2022/05/09 02:00:36;;;;;;;;;3.25;2.25;;;;;11.14;58.49;102762.97;4986231;28;10194;-67
2022/05/09 02:03:03;;;;;;;;;2.00;0.50;;;;;11.10;58.89;102769.66;4984292;28;10285;-67
2022/05/09 02:05:29;;;;;;;;;2.00;2.00;;;;;11.02;58.69;102764.16;4991796;28;10853;-65
2022/05/09 02:07:56;;;;;;;;;1.00;1.00;;;;;10.96;58.93;102765.63;4988043;28;10373;-66
2022/05/09 02:10:22;;;;;;;;;1.50;1.50;;;;;10.97;58.89;102766.47;4987523;28;10310;-63
2022/05/09 02:12:50;;;;;;;;;1.50;1.50;;;;;10.84;59.39;102762.28;4988146;28;10145;-66
2022/05/09 02:15:17;;;;;;;;;2.50;2.00;;;;;10.84;60.13;102773.03;4981213;28;10325;-67
2022/05/09 02:17:45;;;;;;;;;5.00;5.00;;;;;10.77;58.95;102773.78;4990540;28;10159;-65
2022/05/09 02:20:12;;;;;;;;;3.25;2.75;;;;;10.73;59.55;102767.84;4990767;28;10253;-65
2022/05/09 02:22:39;;;;;;;;;4.00;2.00;;;;;10.76;59.72;102770.25;4985007;28;10479;-68
2022/05/09 02:25:26;;;;;;;;;2.00;2.00;;;;;10.80;60.03;102768.09;4982280;28;10179;-67
2022/05/09 02:27:52;;;;;;;;;1.00;1.00;;;;;10.89;59.31;102765.34;4981748;28;10316;-65
2022/05/09 02:30:19;;;;;;;;;1.00;1.00;;;;;10.92;59.90;102764.22;4990031;28;10160;-67
2022/05/09 02:32:47;;;;;;;;;1.00;1.00;;;;;10.98;59.38;102770.84;4984293;28;10043;-67
2022/05/09 02:35:14;;;;;;;;;5.00;3.00;;;;;10.94;58.74;102764.94;4975802;28;10119;-67
2022/05/09 02:37:41;;;;;;;;;4.00;2.00;;;;;10.91;59.16;102761.69;4990753;28;10146;-67
2022/05/09 02:40:08;;;;;;;;;1.75;1.75;;;;;10.92;59.61;102758.00;4990156;28;10233;-67
2022/05/09 02:42:34;;;;;;;;;1.75;1.75;;;;;10.95;59.81;102755.84;4982929;28;10297;-66
2022/05/09 02:45:02;;;;;;;;;2.25;2.25;;;;;10.98;59.05;102757.38;4987545;28;10242;-65
2022/05/09 02:47:29;;;;;;;;;1.75;1.75;;;;;10.94;59.67;102746.06;4978364;28;10142;-66
2022/05/09 02:49:58;;;;;;;;;0.75;0.75;;;;;10.91;59.62;102745.53;4983212;28;10319;-66
2022/05/09 02:52:25;;;;;;;;;4.75;2.00;;;;;10.87;59.43;102753.06;4990764;28;10413;-66
2022/05/09 02:54:51;;;;;;;;;2.00;2.00;;;;;10.78;60.34;102752.09;4987464;28;10255;-67
2022/05/09 02:57:18;;;;;;;;;3.00;2.75;;;;;10.76;60.37;102748.69;4976121;28;10265;-66
2022/05/09 02:59:45;;;;;;;;;2.25;2.25;;;;;10.81;60.49;102741.00;4985015;28;10269;-65
2022/05/09 03:02:13;;;;;;;;;2.25;1.25;;;;;10.87;60.11;102739.56;4986672;28;10112;-67
2022/05/09 03:04:40;;;;;;;;;2.50;2.00;;;;;10.92;59.64;102744.50;4984237;28;10319;-67
2022/05/09 03:07:14;;;;;;;;;2.50;2.50;;;;;10.86;59.68;102740.59;4985211;28;10513;-65
2022/05/09 03:09:42;;;;;;;;;2.00;2.00;;;;;10.77;60.05;102741.47;4980089;28;10474;-66
2022/05/09 03:12:10;;;;;;;;;4.00;1.00;;;;;10.77;60.49;102731.53;4983557;28;10359;-67
2022/05/09 03:14:38;;;;;;;;;4.00;2.75;;;;;10.77;60.13;102734.22;4990682;28;10332;-65
2022/05/09 03:17:07;;;;;;;;;4.00;1.00;;;;;10.81;60.20;102732.91;4986734;28;10316;-66
2022/05/09 03:19:33;;;;;;;;;2.25;1.00;;;;;10.86;60.56;102730.66;4988863;28;10548;-64
2022/05/09 03:22:00;;;;;;;;;1.00;1.00;;;;;10.91;59.78;102726.66;4978003;28;11012;-66
2022/05/09 03:24:27;;;;;;;;;0.50;0.00;;;;;10.91;60.30;102724.81;4984636;28;10226;-67
2022/05/09 03:26:53;;;;;;;;;2.25;2.25;;;;;10.93;59.96;102727.34;4982179;28;10335;-67
2022/05/09 03:29:20;;;;;;;;;2.75;2.75;;;;;10.91;59.82;102718.56;4987507;28;10259;-65
2022/05/09 03:31:47;;;;;;;;;2.00;2.00;;;;;10.74;59.92;102729.16;4993155;28;10410;-65
2022/05/09 03:34:14;;;;;;;;;3.25;3.25;;;;;10.72;60.36;102719.50;4990195;28;10188;-66
2022/05/09 03:36:41;;;;;;;;;3.00;3.00;;;;;10.74;61.04;102721.06;4989980;28;10299;-68
2022/05/09 03:39:07;;;;;;;;;7.00;4.50;;;;;10.78;60.44;102716.25;4993811;28;10242;-67
2022/05/09 03:41:35;;;;;;;;;2.50;1.50;;;;;10.79;60.42;102715.22;4988190;28;11048;-66
2022/05/09 03:44:01;;;;;;;;;2.25;2.25;;;;;10.76;60.62;102713.69;4991491;28;11084;-68
2022/05/09 03:46:33;;;;;;;;;1.00;1.00;;;;;10.75;60.25;102714.69;4993059;28;11117;-67
2022/05/09 03:49:01;;;;;;;;;6.00;4.75;;;;;10.76;61.23;102716.38;4992608;28;10960;-67
2022/05/09 03:51:28;;;;;;;;;3.75;2.50;;;;;10.74;60.76;102715.69;4992781;28;10395;-67
2022/05/09 03:53:54;;;;;;;;;5.00;3.00;;;;;10.69;60.31;102709.88;4992542;28;11005;-65
2022/05/09 03:56:21;;;;;;;;;4.25;2.50;;;;;10.64;60.52;102712.19;4988865;28;10413;-67
2022/05/09 03:58:47;;;;;;;;;6.50;2.25;;;;;10.63;61.16;102710.50;4974505;28;10315;-66
2022/05/09 04:01:14;;;;;;;;;3.00;3.00;;;;;10.63;60.80;102705.09;4980723;28;11208;-68
2022/05/09 04:03:40;;;;;;;;;1.50;1.50;;;;;10.67;60.75;102698.41;4993521;28;10386;-64
2022/05/09 04:06:07;;;;;;;;;4.50;4.00;;;;;10.69;60.81;102707.19;4987295;28;10345;-68
2022/05/09 04:08:33;;;;;;;;;4.25;4.00;;;;;10.69;60.29;102703.66;4985314;28;10999;-70
2022/05/09 04:11:00;;;;;;;;;3.00;3.00;;;;;10.67;60.57;102705.66;4992676;28;10539;-67
2022/05/09 04:13:26;;;;;;;;;4.75;3.00;;;;;10.68;60.51;102705.50;4993797;28;10474;-67
2022/05/09 04:18:43;;;;;;;;;4.25;1.75;;;;;10.62;60.42;102698.88;4992008;28;10317;-68
2022/05/09 04:21:11;;;;;;;;;2.00;2.00;;;;;10.52;61.13;102691.81;4988742;28;10234;-67
2022/05/09 04:23:38;;;;;;;;;5.00;5.00;;;;;10.57;60.74;102698.47;4974897;28;10385;-67
2022/05/09 04:26:05;;;;;;;;;4.00;2.50;;;;;10.60;60.77;102692.78;4985121;28;10465;-66
2022/05/09 04:28:32;;;;;;;;;4.00;4.00;;;;;10.65;61.13;102700.41;4985585;28;10452;-66
2022/05/09 04:30:59;;;;;;;;;6.00;5.75;;;;;10.68;60.70;102696.56;4991984;28;10444;-66
2022/05/09 04:33:28;;;;;;;;;4.00;4.00;;;;;10.68;61.04;102697.41;4993734;28;10538;-66
2022/05/09 04:35:57;;;;;;;;;1.50;1.50;;;;;10.70;61.07;102699.97;4986277;28;10367;-65
2022/05/09 04:38:24;;;;;;;;;5.25;5.25;;;;;10.71;60.48;102696.28;4990637;28;10239;-69
2022/05/09 04:40:54;;;;;;;;;3.00;3.00;;;;;10.72;60.98;102693.41;4992516;28;10390;-65
2022/05/09 04:43:26;;;;;;;;;2.75;2.00;;;;;10.74;60.53;102691.44;4993085;28;10531;-66
2022/05/09 04:45:53;;;;;;;;;4.00;4.00;;;;;10.90;60.50;102685.41;4982015;28;10291;-67
2022/05/09 04:48:22;;;;;;;;;4.75;3.50;;;;;11.06;60.79;102682.00;4991669;28;10551;-67
2022/05/09 04:50:48;;;;;;;;;3.00;2.25;;;;;11.38;60.44;102679.66;4990623;28;10316;-67
2022/05/09 04:53:16;;;;;;;;;2.50;2.50;;;;;11.69;58.96;102675.69;4984079;28;10411;-67
2022/05/09 04:55:43;;;;;;;;;3.25;3.25;;;;;11.72;58.67;102676.22;4989954;28;10268;-67
2022/05/09 04:58:18;;;;;;;;;9.00;7.50;;;;;11.80;58.43;102681.69;4992730;28;10156;-67
2022/05/09 05:00:45;;;;;;;;;6.00;5.75;;;;;12.03;57.51;102679.38;4993309;28;10472;-67
2022/05/09 05:03:12;;;;;;;;;3.25;2.00;;;;;12.01;57.75;102673.25;4990925;28;10302;-67
2022/05/09 05:05:40;;;;;;;;;5.75;5.25;;;;;11.93;57.59;102677.75;4991208;28;10188;-68
2022/05/09 05:08:06;;;;;;;;;5.25;3.25;;;;;11.88;57.92;102672.84;4988139;28;10164;-65
2022/05/09 05:10:33;;;;;;;;;4.00;4.00;;;;;11.79;58.00;102674.59;4987907;28;10043;-66
2022/05/09 05:13:03;;;;;;;;;3.50;3.00;;;;;11.72;57.76;102665.44;4991591;28;10102;-66
2022/05/09 05:15:31;;;;;;;;;6.00;5.25;;;;;11.64;58.21;102670.78;4989365;28;12301;-66
2022/05/09 05:17:57;;;;;;;;;8.00;4.00;;;;;11.65;57.72;102677.84;4986405;28;10272;-65
2022/05/09 05:20:24;;;;;;;;;6.00;6.00;;;;;11.65;57.55;102669.75;4991936;28;10316;-65
2022/05/09 05:22:51;;;;;;;;;4.00;4.00;;;;;11.59;57.16;102671.25;4990078;28;10163;-65
2022/05/09 05:25:24;;;;;;;;;5.75;4.00;;;;;11.55;57.70;102663.63;4992535;28;10188;-66
2022/05/09 05:27:51;;;;;;;;;4.50;4.00;;;;;11.45;57.33;102670.94;4989939;28;10234;-65
2022/05/09 05:30:18;;;;;;;;;4.50;4.50;;;;;11.38;57.93;102663.47;4991330;28;10265;-66
2022/05/09 05:32:46;;;;;;;;;2.00;2.00;;;;;11.38;57.42;102668.88;4992164;28;10142;-66
2022/05/09 05:35:19;;;;;;;;;2.25;2.25;;;;;11.36;57.53;102661.94;4990924;28;10255;-65
2022/05/09 05:37:46;;;;;;;;;2.25;2.25;;;;;11.37;56.71;102660.94;4987228;28;10060;-67
2022/05/09 05:40:14;;;;;;;;;5.25;5.25;;;;;11.29;57.11;102667.09;4992412;28;10021;-66
2022/05/09 05:42:43;;;;;;;;;5.25;3.75;;;;;11.25;57.16;102656.78;4990364;28;10357;-66
2022/05/09 05:45:12;;;;;;;;;6.00;5.75;;;;;11.28;57.27;102657.31;4990607;28;10147;-66
2022/05/09 05:47:40;;;;;;;;;3.50;2.00;;;;;11.30;57.05;102659.84;4988643;28;10283;-66
2022/05/09 05:50:09;;;;;;;;;3.00;3.00;;;;;11.41;56.99;102666.84;4980599;28;10103;-67
2022/05/09 05:52:37;;;;;;;;;3.25;3.25;;;;;11.42;56.94;102663.16;4985052;28;10301;-66
2022/05/09 05:55:04;;;;;;;;;5.25;4.50;;;;;11.51;57.16;102656.84;4990045;28;10111;-66
2022/05/09 05:57:33;;;;;;;;;7.50;5.75;;;;;11.67;56.55;102667.78;4991166;28;10153;-66
2022/05/09 06:00:14;;;;;;;;;5.50;4.00;;;;;11.81;56.44;102669.03;4990684;28;10244;-68
2022/05/09 06:02:44;;;;;;;;;4.75;4.75;;;;;11.96;55.61;102675.59;4991608;28;10838;-67
2022/05/09 06:05:13;;;;;;;;;3.25;3.00;;;;;12.09;55.68;102667.91;4991651;28;10162;-68
2022/05/09 06:07:43;;;;;;;;;4.00;4.00;;;;;12.32;55.50;102670.06;4989033;28;10216;-67
2022/05/09 06:10:11;;;;;;;;;4.50;3.00;;;;;12.58;55.04;102672.72;4991727;28;9847;-66
2022/05/09 06:12:39;;;;;;;;;7.00;5.00;;;;;12.78;54.04;102676.00;4991225;28;9861;-68
2022/05/09 06:17:52;;;;;;;;;2.50;2.50;;;;;13.06;52.70;102673.88;4989101;28;10034;-67
2022/05/09 06:20:20;;;;;;;;;4.50;3.50;;;;;13.11;51.91;102682.34;4991363;28;9759;-67
2022/05/09 06:22:46;;;;;;;;;2.50;2.00;;;;;13.24;52.39;102677.31;4984768;28;10625;-68
2022/05/09 06:25:18;;;;;;;;;2.00;2.00;;;;;13.39;51.84;102674.81;4991174;28;9635;-66
2022/05/09 06:27:45;;;;;;;;;5.00;2.50;;;;;13.51;51.67;102678.88;4989008;28;10462;-67
2022/05/09 06:30:13;;;;;;;;;2.75;2.75;;;;;13.57;51.00;102675.50;4989204;28;9727;-66
2022/05/09 06:32:40;;;;;;;;;4.00;2.50;;;;;13.63;51.05;102675.81;4988938;28;9785;-66
2022/05/09 06:35:09;;;;;;;;;3.00;3.00;;;;;13.71;50.91;102676.66;4991156;28;9658;-69
2022/05/09 06:37:38;;;;;;;;;4.75;2.00;;;;;13.80;50.86;102675.63;4990793;28;9878;-66
2022/05/09 06:40:07;;;;;;;;;5.50;2.25;;;;;13.88;50.67;102679.34;4990651;28;9521;-65
2022/05/09 06:42:35;;;;;;;;;2.50;2.00;;;;;13.85;50.03;102670.56;4987799;28;9736;-66
2022/05/09 06:45:02;;;;;;;;;6.00;4.25;;;;;13.79;50.25;102675.81;4989491;28;9556;-66
2022/05/09 06:47:29;;;;;;;;;3.75;3.75;;;;;13.74;50.06;102676.34;4989464;28;10477;-66
2022/05/09 06:50:03;;;;;;;;;6.25;3.50;;;;;13.73;50.35;102669.25;4989945;28;9827;-65
2022/05/09 06:52:30;;;;;;;;;2.25;2.25;;;;;13.72;50.42;102670.22;4981026;28;9523;-65
2022/05/09 06:54:57;;;;;;;;;3.75;3.75;;;;;13.71;50.41;102673.97;4991113;28;9552;-65
2022/05/09 06:57:23;;;;;;;;;2.00;2.00;;;;;13.74;50.47;102676.34;4989335;28;9701;-65
2022/05/09 06:59:50;;;;;;;;;2.00;2.00;;;;;13.75;50.62;102678.00;4990944;28;9550;-66
2022/05/09 07:02:16;;;;;;;;;3.25;2.50;;;;;13.79;50.85;102679.38;4990002;28;9595;-67
2022/05/09 07:04:43;;;;;;;;;3.50;2.75;;;;;13.81;50.59;102677.34;4983034;28;10266;-65
2022/05/09 07:07:09;;;;;;;;;5.50;4.00;;;;;13.83;50.08;102683.41;4971120;28;9588;-65
2022/05/09 07:09:37;;;;;;;;;5.25;3.00;;;;;13.80;50.09;102674.78;4972810;28;9527;-66
2022/05/09 07:12:04;;;;;;;;;2.00;2.00;;;;;13.85;50.38;102678.69;4986430;28;10305;-66
2022/05/09 07:14:33;;;;;;;;;4.25;3.75;;;;;13.94;50.00;102682.22;4974738;28;9601;-67
2022/05/09 07:16:59;;;;;;;;;3.00;3.00;;;;;14.03;49.97;102677.66;4981812;28;9784;-67
2022/05/09 07:19:26;;;;;;;;;1.25;1.25;;;;;14.13;49.97;102672.03;4983080;28;9683;-67
2022/05/09 07:21:52;;;;;;;;;6.00;3.25;;;;;14.16;49.38;102672.53;4982215;28;9578;-66
2022/05/09 07:24:19;;;;;;;;;2.75;2.75;;;;;14.17;49.14;102671.50;4982855;28;10408;-68
2022/05/09 07:26:45;;;;;;;;;2.00;2.00;;;;;14.24;49.09;102677.09;4985585;28;9602;-68
2022/05/09 07:29:12;;;;;;;;;3.50;3.00;;;;;14.28;49.12;102679.28;4987107;28;9390;-67
2022/05/09 07:31:39;;;;;;;;;3.00;3.00;;;;;14.27;48.70;102679.47;4986558;28;9667;-67
2022/05/09 07:34:06;;;;;;;;;5.00;3.25;;;;;14.31;48.76;102683.50;4987440;28;9804;-67
2022/05/09 07:36:33;;;;;;;;;6.50;5.00;;;;;14.32;48.83;102685.19;4987631;28;9631;-67
2022/05/09 07:39:01;;;;;;;;;2.00;1.00;;;;;14.38;48.69;102680.94;4988209;28;9652;-69
2022/05/09 07:41:27;;;;;;;;;2.00;2.00;;;;;14.44;48.68;102678.38;4983166;28;9484;-67
2022/05/09 07:43:58;;;;;;;;;4.25;2.75;;;;;14.49;48.52;102672.47;4991199;28;9480;-68
2022/05/09 07:46:24;;;;;;;;;3.00;2.00;;;;;14.55;48.59;102677.19;4988168;28;9465;-66
2022/05/09 07:49:11;;;;;;;;;2.00;2.00;;;;;14.63;48.09;102669.03;4985543;28;10258;-66
2022/05/09 07:51:38;;;;;;;;;6.75;3.50;;;;;14.69;47.96;102660.16;4985042;28;9515;-67
2022/05/09 07:54:06;;;;;;;;;3.00;3.00;;;;;14.73;47.42;102664.22;4987335;28;9386;-67
2022/05/09 07:56:39;;;;;;;;;6.25;3.00;;;;;14.77;47.06;102670.97;4986156;28;9415;-66
2022/05/09 07:59:05;;;;;;;;;4.00;3.00;;;;;14.82;46.82;102667.72;4986693;28;9458;-67
2022/05/09 08:01:32;;;;;;;;;3.00;2.00;;;;;14.89;47.26;102670.59;4985003;28;9421;-67
2022/05/09 08:04:04;;;;;;;;;1.67;1.67;;;;;14.98;47.20;102667.63;4986225;28;9306;-66
2022/05/09 08:06:31;;;;;;;;;1.67;1.67;;;;;15.06;47.08;102661.31;4987796;28;9287;-65
2022/05/09 08:08:58;;;;;;;;;6.00;5.00;;;;;15.15;46.67;102657.53;4986031;28;10221;-67
2022/05/09 08:11:25;;;;;;;;;2.50;2.50;;;;;15.22;46.62;102665.78;4986659;28;9333;-67
2022/05/09 08:13:51;;;;;;;;;3.33;3.00;;;;;15.28;45.84;102662.38;4987945;28;9479;-67
2022/05/09 08:16:19;;;;;;;;;1.00;1.00;;;;;15.31;45.63;102664.69;4989418;28;10049;-67
2022/05/09 08:18:45;;;;;;;;;6.00;4.50;;;;;15.38;45.78;102664.81;4989240;28;9314;-67
2022/05/09 08:21:13;;;;;;;;;5.00;3.00;;;;;15.49;45.62;102661.69;4988295;28;9575;-67
2022/05/09 08:23:44;;;;;;;;;2.67;2.33;;;;;15.53;45.60;102661.13;4991119;28;10078;-67
2022/05/09 08:26:11;;;;;;;;;2.33;2.33;;;;;15.53;45.45;102655.72;4990954;28;9521;-67
2022/05/09 08:28:39;;;;;;;;;5.00;4.33;;;;;15.62;45.13;102656.47;4983878;28;9380;-67
2022/05/09 08:31:06;;;;;;;;;5.00;3.67;;;;;15.69;44.77;102656.63;4984889;28;9231;-66
2022/05/09 08:33:32;;;;;;;;;2.00;2.00;;;;;15.71;45.05;102657.28;4985980;28;9485;-66
2022/05/09 08:36:02;;;;;;;;;5.33;5.33;;;;;15.80;44.94;102659.75;4982959;28;9275;-67
2022/05/09 08:38:28;;;;;;;;;5.33;4.33;;;;;15.85;44.17;102658.34;4983652;28;9477;-67
2022/05/09 08:41:12;;;;;;;;;3.67;2.67;;;;;15.90;44.28;102661.34;4984492;28;9325;-67
2022/05/09 08:43:51;;;;;;;;;2.67;1.67;;;;;15.96;43.69;102652.44;4986618;28;9297;-67
2022/05/09 08:46:38;;;;;;;;;3.00;3.00;;;;;16.02;43.64;102655.28;4985460;28;9100;-67
2022/05/09 08:49:15;;;;;;;;;3.00;3.00;;;;;16.15;43.77;102659.22;4983968;28;9246;-66
2022/05/09 08:51:57;;;;;;;;;5.33;5.33;;;;;16.23;42.86;102653.69;4984602;28;9090;-66
2022/05/09 08:54:25;;;;;;;;;6.00;4.33;;;;;16.24;42.53;102650.78;4984241;28;9231;-68
2022/05/09 08:56:58;;;;;;;;;2.67;2.00;;;;;16.29;42.82;102656.50;4982190;28;9422;-66
2022/05/09 08:59:36;;;;;;;;;3.00;3.00;;;;;16.41;42.73;102651.44;4982581;28;9059;-67
2022/05/09 09:02:12;;;;;;;;;3.00;3.00;;;;;16.51;42.77;102646.53;4983587;28;9287;-66
2022/05/09 09:04:44;;;;;;;;;4.00;3.67;;;;;16.66;41.89;102640.25;4981622;28;9204;-66
2022/05/09 09:07:38;;;;;;;;;6.00;4.33;;;;;16.70;42.07;102634.25;4983289;28;9237;-66
2022/05/09 09:10:09;;;;;;;;;2.00;2.00;;;;;16.80;42.60;102642.94;4983999;28;9093;-66
2022/05/09 09:12:59;;;;;;;;;2.00;2.00;;;;;16.92;42.10;102632.41;4983856;28;9155;-66
2022/05/09 09:15:50;;;;;;;;;3.33;3.00;;;;;17.04;42.62;102627.31;4982933;28;9620;-66
2022/05/09 09:18:40;;;;;;;;;7.00;7.00;;;;;17.18;40.97;102628.31;4983644;28;9065;-66
2022/05/09 09:21:14;;;;;;;;;2.67;2.67;;;;;17.22;41.13;102627.72;4983134;28;9386;-66
2022/05/09 09:24:02;;;;;;;;;11.33;8.67;;;;;17.30;41.41;102629.47;4981654;28;9022;-65
2022/05/09 09:27:17;;;;;;;;;7.67;6.00;;;;;17.37;40.39;102615.91;4982892;28;9187;-67
2022/05/09 09:29:49;;;;;;;;;5.33;4.00;;;;;17.44;39.85;102619.53;4979960;28;8994;-66
2022/05/09 09:32:18;;;;;;;;;3.33;2.00;;;;;17.57;39.33;102619.63;4983450;28;9074;-66
2022/05/09 09:34:52;;;;;;;;;7.33;6.67;;;;;17.67;38.96;102616.56;4982394;28;8999;-66
2022/05/09 09:37:36;;;;;;;;;4.00;4.00;;;;;17.76;38.33;102608.06;4979888;28;9106;-67
2022/05/09 09:40:04;;;;;;;;;2.75;2.75;;;;;17.82;38.21;102611.03;4981665;28;8946;-67
2022/05/09 09:42:33;;;;;;;;;3.50;2.25;;;;;17.79;37.39;102607.69;4983462;28;8864;-67
2022/05/09 09:45:03;;;;;;;;;5.00;4.00;;;;;17.79;38.10;102606.84;4982987;28;8824;-67
2022/05/09 09:47:30;;;;;;;;;2.75;2.75;;;;;17.87;38.91;102598.53;4982483;28;8931;-67
2022/05/09 09:50:23;;;;;;;;;3.50;3.00;;;;;17.94;38.74;102593.94;4980744;28;8864;-67
2022/05/09 09:52:53;;;;;;;;;2.00;2.00;;;;;17.95;37.52;102597.53;4980969;28;8920;-67
2022/05/09 09:55:35;;;;;;;;;4.00;3.00;;;;;17.95;36.92;102600.25;4983132;28;8845;-67
2022/05/09 09:58:26;;;;;;;;;5.50;4.50;;;;;18.06;37.33;102596.94;4983370;28;8833;-66
2022/05/09 10:01:07;;;;;;;;;3.00;3.00;;;;;18.17;38.05;102595.53;4983172;28;8825;-67
2022/05/09 10:03:40;;;;;;;;;2.00;0.75;;;;;18.25;37.60;102590.75;4979709;28;8858;-67
2022/05/09 10:06:16;;;;;;;;;2.25;2.25;;;;;18.31;36.02;102588.25;4981687;28;8833;-67
2022/05/09 10:08:44;;;;;;;;;2.00;2.00;;;;;18.34;35.83;102582.41;4982237;28;8961;-67
2022/05/09 10:11:23;;;;;;;;;3.25;3.00;;;;;18.40;36.11;102584.31;4982690;28;9612;-66
2022/05/09 10:13:52;;;;;;;;;2.75;2.75;;;;;18.44;35.91;102582.88;4983807;28;8861;-66
2022/05/09 10:16:33;;;;;;;;;3.50;2.00;;;;;18.53;36.33;102584.38;4984727;28;8866;-64
2022/05/09 10:19:04;;;;;;;;;3.00;2.00;;;;;18.66;36.18;102576.22;4982759;28;8880;-67
2022/05/09 10:24:47;;;;;;;;;2.00;2.00;;;;;18.69;34.98;102564.06;4982280;28;8843;-68
2022/05/09 10:27:22;;;;;;;;;3.00;3.00;;;;;18.76;35.04;102562.22;4979787;28;8853;-64
2022/05/09 10:29:51;;;;;;;;;4.25;3.00;;;;;18.82;35.16;102560.53;4982657;28;8880;-67
2022/05/09 10:32:25;;;;;;;;;5.00;2.50;;;;;18.89;36.19;102564.97;4981844;28;8830;-68
2022/05/09 10:35:15;;;;;;;;;3.50;3.50;;;;;18.85;34.47;102550.06;4979169;28;8825;-66
2022/05/09 10:38:02;;;;;;;;;3.75;3.75;;;;;18.85;35.21;102557.41;4977328;28;8857;-65
2022/05/09 10:40:50;;;;;;;;;2.75;2.75;;;;;18.96;35.70;102556.81;4979079;28;8951;-67
2022/05/09 10:43:33;;;;;;;;;1.75;1.75;;;;;18.99;34.73;102553.63;4979626;28;8834;-67
2022/05/09 10:46:04;;;;;;;;;4.00;4.00;;;;;19.04;35.42;102542.94;4981527;28;8842;-67
2022/05/09 10:48:41;;;;;;;;;3.00;3.00;;;;;19.15;35.19;102542.31;4982498;28;8867;-66
2022/05/09 10:51:15;;;;;;;;;4.00;4.00;;;;;19.24;34.27;102540.19;4982422;28;8971;-68
2022/05/09 10:54:24;;;;;;;;;2.00;2.00;;;;;19.21;35.28;102536.03;4980622;28;8931;-66
2022/05/09 10:56:57;;;;;;;;;2.25;2.25;;;;;19.31;35.20;102532.00;4981059;28;8874;-64
2022/05/09 10:59:26;;;;;;;;;2.25;2.25;;;;;19.41;35.35;102536.00;4980765;28;9592;-66
2022/05/09 11:02:00;;;;;;;;;3.00;3.00;;;;;19.50;35.68;102537.47;4981880;28;8834;-67
2022/05/09 11:04:30;;;;;;;;;1.00;1.00;;;;;19.54;34.82;102548.81;4981821;28;8971;-66
2022/05/09 11:07:17;;;;;;;;;2.25;2.25;;;;;19.56;35.18;102543.13;4981083;28;8837;-66
2022/05/09 11:10:10;;;;;;;;;1.75;1.75;;;;;19.63;34.64;102533.88;4981303;28;9605;-66
2022/05/09 11:13:05;;;;;;;;;3.00;3.00;;;;;19.72;34.28;102529.88;4981706;28;8838;-66
2022/05/09 11:15:45;;;;;;;;;4.50;3.00;;;;;19.82;35.12;102528.59;4982477;28;9035;-66
2022/05/09 11:18:17;;;;;;;;;3.00;3.00;;;;;19.86;33.28;102522.50;4980691;28;8865;-66
2022/05/09 11:21:31;;;;;;;;;3.50;2.50;;;;;19.70;33.72;102518.31;4982467;28;8810;-68
2022/05/09 11:24:19;;;;;;;;;2.50;2.00;;;;;19.74;33.99;102521.47;4937658;29;8840;-67
2022/05/09 11:27:05;;;;;;;;;3.00;3.00;;;;;19.83;34.76;102522.06;4940907;28;8838;-66
2022/05/09 11:30:19;;;;;;;;;2.00;2.00;;;;;19.91;34.39;102519.09;4977182;28;8865;-64
2022/05/09 11:32:54;;;;;;;;;2.00;2.00;;;;;19.95;34.28;102523.91;4982363;28;8829;-67
2022/05/09 11:35:31;;;;;;;;;2.75;2.75;;;;;20.00;33.89;102520.53;4981243;28;8845;-67
2022/05/09 11:38:22;;;;;;;;;1.50;1.00;;;;;20.10;33.74;102506.41;4981257;28;8834;-66
2022/05/09 11:40:58;;;;;;;;;2.25;1.75;;;;;20.17;33.67;102518.97;4978673;28;8889;-66
2022/05/09 11:44:04;;;;;;;;;3.75;2.75;;;;;20.23;33.20;102512.66;4981290;28;9439;-64
2022/05/09 11:46:39;;;;;;;;;2.25;2.25;;;;;20.33;33.76;102514.06;4980822;28;8833;-66
2022/05/09 11:49:16;;;;;;;;;2.25;2.00;;;;;20.37;33.09;102502.47;4980888;28;9557;-67
2022/05/09 11:51:48;;;;;;;;;2.50;1.50;;;;;20.35;32.34;102501.03;4997650;28;8980;-66
2022/05/09 11:54:22;;;;;;;;;0.75;0.75;;;;;20.39;32.49;102491.34;4985372;28;8833;-66
2022/05/09 11:56:53;;;;;;;;;3.25;2.00;;;;;20.47;32.66;102496.53;4985374;28;8991;-65
2022/05/09 11:59:23;;;;;;;;;2.00;2.00;;;;;20.57;32.45;102490.59;4982322;28;8869;-67